createdAt,value
2018-11-22T00:01:06.166Z,0
2018-11-22T00:02:18.391Z,0
2018-11-22T00:03:30.585Z,0
2018-11-22T00:04:42.727Z,0
2018-11-22T00:05:55.012Z,0
2018-11-22T00:07:07.155Z,0
2018-11-22T00:08:19.387Z,0
2018-11-22T00:09:31.604Z,0
2018-11-22T00:10:43.921Z,0
2018-11-22T00:11:56.122Z,0
2018-11-22T00:13:08.264Z,0
2018-11-22T00:14:20.576Z,0
2018-11-22T00:15:32.806Z,0
2018-11-22T00:16:45.055Z,0
2018-11-22T00:17:57.268Z,0
2018-11-22T00:19:09.374Z,0
2018-11-22T00:20:21.659Z,0
2018-11-22T00:21:33.818Z,0
2018-11-22T00:22:46.099Z,0
2018-11-22T00:23:58.257Z,0
2018-11-22T00:25:10.529Z,0
2018-11-22T00:26:22.665Z,0
2018-11-22T00:27:34.974Z,0
2018-11-22T00:28:47.157Z,0
2018-11-22T00:29:59.348Z,0
2018-11-22T00:31:11.563Z,0
2018-11-22T00:32:23.748Z,0
2018-11-22T00:33:35.894Z,0
2018-11-22T00:34:48.162Z,0
2018-11-22T00:36:00.360Z,0
2018-11-22T00:37:12.570Z,0
2018-11-22T00:38:24.769Z,0
2018-11-22T00:39:36.965Z,0
2018-11-22T00:40:49.096Z,0
2018-11-22T00:42:01.366Z,0
2018-11-22T00:43:13.573Z,0
2018-11-22T00:44:25.769Z,0
2018-11-22T00:45:37.913Z,0
2018-11-22T00:46:50.212Z,0
2018-11-22T00:48:02.423Z,0
2018-11-22T00:49:14.622Z,0
2018-11-22T00:50:26.818Z,0
2018-11-22T00:51:38.944Z,0
2018-11-22T00:52:51.160Z,0
2018-11-22T00:54:03.344Z,0
2018-11-22T00:55:16.029Z,0
2018-11-22T00:56:27.818Z,0
2018-11-22T00:57:40.020Z,0
2018-11-22T00:58:52.219Z,0
2018-11-22T01:00:04.345Z,0
2018-11-22T01:01:16.645Z,0
2018-11-22T01:02:28.847Z,0
2018-11-22T01:03:41.025Z,0
2018-11-22T01:04:53.163Z,0
2018-11-22T01:06:05.437Z,0
2018-11-22T01:07:17.640Z,0
2018-11-22T01:08:29.849Z,0
2018-11-22T01:09:42.041Z,0
2018-11-22T01:10:54.240Z,0
2018-11-22T01:12:06.499Z,0
2018-11-22T01:13:18.691Z,0
2018-11-22T01:14:30.783Z,0
2018-11-22T01:15:42.991Z,0
2018-11-22T01:16:55.257Z,0
2018-11-22T01:18:07.388Z,0
2018-11-22T01:19:19.677Z,0
2018-11-22T01:20:31.862Z,0
2018-11-22T01:21:44.056Z,0
2018-11-22T01:22:56.203Z,0
2018-11-22T01:24:08.446Z,0
2018-11-22T01:25:20.652Z,0
2018-11-22T01:26:32.877Z,0
2018-11-22T01:27:45.068Z,0
2018-11-22T01:28:57.341Z,0
2018-11-22T01:30:09.491Z,0
2018-11-22T01:31:21.626Z,0
2018-11-22T01:32:33.937Z,0
2018-11-22T01:33:46.226Z,0
2018-11-22T01:34:58.332Z,0
2018-11-22T01:36:10.727Z,0
2018-11-22T01:37:22.797Z,0
2018-11-22T01:38:34.912Z,0
2018-11-22T01:39:47.130Z,0
2018-11-22T01:40:59.359Z,0
2018-11-22T01:42:11.466Z,0
2018-11-22T01:43:23.736Z,0
2018-11-22T01:44:35.998Z,0
2018-11-22T01:45:48.088Z,0
2018-11-22T01:47:00.361Z,0
2018-11-22T01:48:12.566Z,0
2018-11-22T01:49:24.706Z,0
2018-11-22T01:50:36.925Z,0
2018-11-22T01:51:49.213Z,0
2018-11-22T01:53:01.404Z,0
2018-11-22T01:54:13.609Z,0
2018-11-22T01:55:25.819Z,0
2018-11-22T01:56:38.177Z,0
2018-11-22T01:57:50.215Z,0
2018-11-22T01:59:02.447Z,0
2018-11-22T02:00:14.622Z,0
2018-11-22T02:01:26.827Z,0
2018-11-22T02:02:39.023Z,0
2018-11-22T02:03:51.215Z,0
2018-11-22T02:05:03.430Z,0
2018-11-22T02:06:15.670Z,0
2018-11-22T02:07:27.841Z,0
2018-11-22T02:08:39.994Z,0
2018-11-22T02:09:52.183Z,0
2018-11-22T02:11:04.451Z,0
2018-11-22T02:12:16.598Z,0
2018-11-22T02:13:28.791Z,0
2018-11-22T02:14:40.989Z,0
2018-11-22T02:15:53.181Z,0
2018-11-22T02:17:05.404Z,0
2018-11-22T02:18:17.570Z,0
2018-11-22T02:19:29.783Z,0
2018-11-22T02:20:42.034Z,0
2018-11-22T02:21:54.168Z,0
2018-11-22T02:23:06.348Z,0
2018-11-22T02:24:18.663Z,0
2018-11-22T02:25:30.854Z,0
2018-11-22T02:26:43.064Z,0
2018-11-22T02:27:55.216Z,0
2018-11-22T02:29:07.455Z,0
2018-11-22T02:30:19.633Z,0
2018-11-22T02:31:31.738Z,0
2018-11-22T02:32:44.012Z,0
2018-11-22T02:33:56.219Z,0
2018-11-22T02:35:08.424Z,0
2018-11-22T02:36:20.637Z,0
2018-11-22T02:37:32.829Z,0
2018-11-22T02:38:45.009Z,0
2018-11-22T02:39:57.286Z,0
2018-11-22T02:41:09.332Z,0
2018-11-22T02:42:21.626Z,0
2018-11-22T02:43:33.847Z,0
2018-11-22T02:44:45.945Z,0
2018-11-22T02:45:58.230Z,0
2018-11-22T02:47:10.428Z,0
2018-11-22T02:48:22.664Z,0
2018-11-22T02:49:34.775Z,0
2018-11-22T02:50:47.062Z,0
2018-11-22T02:51:59.262Z,0
2018-11-22T02:53:11.396Z,0
2018-11-22T02:54:23.669Z,0
2018-11-22T02:55:35.864Z,0
2018-11-22T02:56:48.063Z,0
2018-11-22T02:58:00.270Z,0
2018-11-22T02:59:12.404Z,0
2018-11-22T03:00:24.747Z,0
2018-11-22T03:01:36.891Z,0
2018-11-22T03:02:49.084Z,0
2018-11-22T03:04:01.297Z,0
2018-11-22T03:05:13.562Z,0
2018-11-22T03:06:25.749Z,0
2018-11-22T03:07:37.816Z,0
2018-11-22T03:08:50.083Z,0
2018-11-22T03:10:02.307Z,0
2018-11-22T03:11:14.502Z,0
2018-11-22T03:12:26.691Z,0
2018-11-22T03:13:38.839Z,0
2018-11-22T03:14:51.091Z,0
2018-11-22T03:16:03.301Z,0
2018-11-22T03:17:15.482Z,0
2018-11-22T03:18:27.803Z,0
2018-11-22T03:19:39.887Z,0
2018-11-22T03:20:52.148Z,0
2018-11-22T03:22:04.210Z,0
2018-11-22T03:23:16.657Z,0
2018-11-22T03:24:28.684Z,0
2018-11-22T03:25:40.822Z,0
2018-11-22T03:26:53.011Z,0
2018-11-22T03:28:05.294Z,0
2018-11-22T03:29:17.490Z,0
2018-11-22T03:30:29.649Z,0
2018-11-22T03:31:41.821Z,0
2018-11-22T03:32:54.113Z,0
2018-11-22T03:34:06.214Z,0
2018-11-22T03:35:18.412Z,0
2018-11-22T03:36:30.685Z,0
2018-11-22T03:37:42.807Z,0
2018-11-22T03:38:55.012Z,0
2018-11-22T03:40:07.288Z,0
2018-11-22T03:41:19.507Z,0
2018-11-22T03:42:31.695Z,0
2018-11-22T03:43:43.833Z,0
2018-11-22T03:44:56.292Z,0
2018-11-22T03:46:08.360Z,0
2018-11-22T03:47:20.479Z,0
2018-11-22T03:48:32.666Z,0
2018-11-22T03:49:44.923Z,0
2018-11-22T03:50:57.051Z,0
2018-11-22T03:52:09.255Z,0
2018-11-22T03:53:21.530Z,0
2018-11-22T03:54:33.650Z,0
2018-11-22T03:55:45.967Z,0
2018-11-22T03:56:58.167Z,0
2018-11-22T03:58:10.277Z,0
2018-11-22T03:59:22.483Z,0
2018-11-22T04:00:34.769Z,0
2018-11-22T04:01:46.984Z,0
2018-11-22T04:02:59.210Z,0
2018-11-22T04:04:11.408Z,0
2018-11-22T04:05:23.548Z,0
2018-11-22T04:06:35.831Z,0
2018-11-22T04:07:48.012Z,0
2018-11-22T04:09:00.224Z,0
2018-11-22T04:10:12.421Z,0
2018-11-22T04:11:24.559Z,0
2018-11-22T04:12:36.861Z,0
2018-11-22T04:13:48.996Z,0
2018-11-22T04:15:01.196Z,0
2018-11-22T04:16:13.497Z,0
2018-11-22T04:17:25.667Z,0
2018-11-22T04:18:37.866Z,0
2018-11-22T04:19:49.995Z,0
2018-11-22T04:21:02.272Z,0
2018-11-22T04:22:14.485Z,0
2018-11-22T04:23:26.602Z,0
2018-11-22T04:24:38.901Z,0
2018-11-22T04:25:51.058Z,0
2018-11-22T04:27:03.194Z,0
2018-11-22T04:28:15.468Z,0
2018-11-22T04:29:27.612Z,0
2018-11-22T04:30:39.871Z,0
2018-11-22T04:31:52.056Z,0
2018-11-22T04:33:04.264Z,0
2018-11-22T04:34:16.486Z,0
2018-11-22T04:35:28.577Z,0
2018-11-22T04:36:40.880Z,0
2018-11-22T04:37:53.054Z,0
2018-11-22T04:39:05.250Z,0
2018-11-22T04:40:17.449Z,0
2018-11-22T04:41:29.571Z,0
2018-11-22T04:42:41.851Z,0
2018-11-22T04:43:54.066Z,0
2018-11-22T04:45:06.178Z,0
2018-11-22T04:46:18.450Z,0
2018-11-22T04:47:30.723Z,0
2018-11-22T04:48:42.876Z,0
2018-11-22T04:49:55.086Z,0
2018-11-22T04:51:07.294Z,0
2018-11-22T04:52:19.494Z,0
2018-11-22T04:53:31.695Z,0
2018-11-22T04:54:43.930Z,0
2018-11-22T04:55:56.125Z,0
2018-11-22T04:57:08.316Z,0
2018-11-22T04:58:20.450Z,0
2018-11-22T04:59:32.757Z,0
2018-11-22T05:00:44.874Z,0
2018-11-22T05:01:57.202Z,0
2018-11-22T05:03:09.365Z,0
2018-11-22T05:04:21.572Z,0
2018-11-22T05:05:33.762Z,0
2018-11-22T05:06:45.949Z,0
2018-11-22T05:07:58.133Z,0
2018-11-22T05:09:10.397Z,0
2018-11-22T05:10:22.561Z,0
2018-11-22T05:11:36.663Z,0
2018-11-22T05:12:46.957Z,0
2018-11-22T05:13:59.073Z,0
2018-11-22T05:15:11.371Z,0
2018-11-22T05:16:23.484Z,0
2018-11-22T05:17:35.770Z,0
2018-11-22T05:18:47.959Z,0
2018-11-22T05:20:00.164Z,0
2018-11-22T05:21:12.420Z,0
2018-11-22T05:22:24.570Z,0
2018-11-22T05:23:36.838Z,0
2018-11-22T05:24:48.936Z,0
2018-11-22T05:26:01.058Z,0
2018-11-22T05:27:13.396Z,0
2018-11-22T05:28:25.536Z,0
2018-11-22T05:29:37.730Z,0
2018-11-22T05:30:49.943Z,0
2018-11-22T05:32:02.141Z,0
2018-11-22T05:33:14.321Z,0
2018-11-22T05:34:26.518Z,0
2018-11-22T05:35:38.759Z,0
2018-11-22T05:36:51.166Z,0
2018-11-22T05:38:03.147Z,0
2018-11-22T05:39:15.265Z,0
2018-11-22T05:40:27.541Z,0
2018-11-22T05:41:39.739Z,0
2018-11-22T05:42:51.859Z,0
2018-11-22T05:44:04.184Z,0
2018-11-22T05:45:16.255Z,0
2018-11-22T05:46:28.524Z,0
2018-11-22T05:47:40.734Z,0
2018-11-22T05:48:52.911Z,0
2018-11-22T05:50:05.079Z,0
2018-11-22T05:51:17.332Z,0
2018-11-22T05:52:29.437Z,0
2018-11-22T05:53:41.715Z,0
2018-11-22T05:54:53.927Z,0
2018-11-22T05:56:06.110Z,0
2018-11-22T05:57:18.323Z,0
2018-11-22T05:58:30.519Z,0
2018-11-22T05:59:42.726Z,0
2018-11-22T06:00:54.942Z,0
2018-11-22T06:02:07.106Z,0
2018-11-22T06:03:19.233Z,0
2018-11-22T06:04:31.442Z,0
2018-11-22T06:05:43.639Z,0
2018-11-22T06:06:55.915Z,0
2018-11-22T06:08:08.118Z,0
2018-11-22T06:09:20.405Z,0
2018-11-22T06:10:32.521Z,0
2018-11-22T06:11:44.833Z,0
2018-11-22T06:12:56.842Z,0
2018-11-22T06:14:09.222Z,0
2018-11-22T06:15:21.246Z,0
2018-11-22T06:16:33.536Z,0
2018-11-22T06:17:45.719Z,0
2018-11-22T06:18:57.937Z,0
2018-11-22T06:20:10.120Z,0
2018-11-22T06:21:22.335Z,0
2018-11-22T06:22:34.567Z,0
2018-11-22T06:23:46.650Z,0
2018-11-22T06:24:58.974Z,0
2018-11-22T06:26:11.132Z,0
2018-11-22T06:27:23.245Z,0
2018-11-22T06:28:35.532Z,0
2018-11-22T06:29:47.642Z,0
2018-11-22T06:31:00.223Z,0
2018-11-22T06:32:12.057Z,0
2018-11-22T06:33:24.331Z,0
2018-11-22T06:34:36.444Z,0
2018-11-22T06:35:48.678Z,0
2018-11-22T06:37:00.916Z,0
2018-11-22T06:38:13.074Z,0
2018-11-22T06:39:25.325Z,0
2018-11-22T06:40:37.552Z,0
2018-11-22T06:41:49.743Z,0
2018-11-22T06:43:01.951Z,0
2018-11-22T06:44:14.129Z,0
2018-11-22T06:45:26.253Z,0
2018-11-22T06:46:38.530Z,0
2018-11-22T06:47:50.770Z,0
2018-11-22T06:49:02.944Z,0
2018-11-22T06:50:15.141Z,0
2018-11-22T06:51:27.280Z,0
2018-11-22T06:52:39.559Z,0
2018-11-22T06:53:51.702Z,0
2018-11-22T06:55:03.947Z,0
2018-11-22T06:56:16.282Z,5
2018-11-22T06:57:28.394Z,5
2018-11-22T06:58:40.483Z,5
2018-11-22T06:59:52.961Z,5
2018-11-22T07:01:04.970Z,5
2018-11-22T07:02:17.192Z,5
2018-11-22T07:03:29.386Z,5
2018-11-22T07:04:41.580Z,5
2018-11-22T07:05:53.785Z,11
2018-11-22T07:07:05.969Z,11
2018-11-22T07:08:18.177Z,11
2018-11-22T07:09:30.299Z,11
2018-11-22T07:10:42.577Z,16
2018-11-22T07:11:54.717Z,16
2018-11-22T07:13:06.997Z,16
2018-11-22T07:14:19.197Z,16
2018-11-22T07:15:31.337Z,16
2018-11-22T07:16:43.597Z,16
2018-11-22T07:17:55.786Z,22
2018-11-22T07:19:07.915Z,22
2018-11-22T07:21:32.375Z,22
2018-11-22T07:22:44.497Z,22
2018-11-22T07:23:56.773Z,28
2018-11-22T07:25:08.964Z,28
2018-11-22T07:26:21.091Z,28
2018-11-22T07:27:33.364Z,33
2018-11-22T07:28:45.563Z,33
2018-11-22T07:29:57.760Z,33
2018-11-22T07:31:10.008Z,39
2018-11-22T07:32:22.115Z,39
2018-11-22T07:33:34.390Z,39
2018-11-22T07:34:46.574Z,39
2018-11-22T07:35:58.778Z,45
2018-11-22T07:37:11.145Z,45
2018-11-22T07:38:23.202Z,50
2018-11-22T07:39:35.414Z,50
2018-11-22T07:40:47.531Z,56
2018-11-22T07:41:59.900Z,61
2018-11-22T07:43:11.944Z,61
2018-11-22T07:44:24.224Z,67
2018-11-22T07:45:36.515Z,67
2018-11-22T07:46:48.550Z,73
2018-11-22T07:48:00.748Z,73
2018-11-22T07:49:12.947Z,78
2018-11-22T07:50:25.233Z,78
2018-11-22T07:51:37.333Z,84
2018-11-22T07:52:49.608Z,90
2018-11-22T07:54:01.728Z,90
2018-11-22T07:55:14.009Z,90
2018-11-22T07:56:26.119Z,95
2018-11-22T07:57:38.316Z,95
2018-11-22T07:58:50.524Z,95
2018-11-22T08:00:02.761Z,101
2018-11-22T08:01:14.920Z,101
2018-11-22T08:02:27.286Z,106
2018-11-22T08:03:39.397Z,106
2018-11-22T08:04:51.522Z,106
2018-11-22T08:06:03.923Z,106
2018-11-22T08:07:15.918Z,101
2018-11-22T08:08:28.215Z,101
2018-11-22T08:09:40.405Z,101
2018-11-22T08:10:52.648Z,106
2018-11-22T08:12:04.745Z,106
2018-11-22T08:13:16.933Z,106
2018-11-22T08:14:29.283Z,106
2018-11-22T08:15:41.437Z,112
2018-11-22T08:16:53.548Z,112
2018-11-22T08:18:05.734Z,118
2018-11-22T08:19:18.007Z,118
2018-11-22T08:20:30.204Z,112
2018-11-22T08:21:42.397Z,112
2018-11-22T08:22:54.519Z,106
2018-11-22T08:24:06.806Z,106
2018-11-22T08:25:18.919Z,112
2018-11-22T08:26:31.116Z,123
2018-11-22T08:27:43.356Z,135
2018-11-22T08:28:55.572Z,146
2018-11-22T08:30:07.777Z,157
2018-11-22T08:31:19.974Z,163
2018-11-22T08:32:32.111Z,163
2018-11-22T08:33:44.298Z,163
2018-11-22T08:34:56.586Z,163
2018-11-22T08:36:08.674Z,163
2018-11-22T08:37:20.969Z,163
2018-11-22T08:38:33.064Z,168
2018-11-22T08:39:45.326Z,168
2018-11-22T08:40:57.541Z,163
2018-11-22T08:42:09.733Z,163
2018-11-22T08:43:21.948Z,163
2018-11-22T08:44:34.052Z,168
2018-11-22T08:45:46.363Z,168
2018-11-22T08:46:58.473Z,168
2018-11-22T08:48:10.739Z,168
2018-11-22T08:49:22.958Z,168
2018-11-22T08:50:35.092Z,168
2018-11-22T08:51:47.359Z,168
2018-11-22T08:52:59.543Z,163
2018-11-22T08:54:11.690Z,168
2018-11-22T08:55:23.864Z,168
2018-11-22T08:56:36.075Z,168
2018-11-22T08:57:48.357Z,168
2018-11-22T08:59:00.528Z,174
2018-11-22T09:00:12.740Z,180
2018-11-22T09:01:24.954Z,185
2018-11-22T09:02:37.074Z,191
2018-11-22T09:03:49.287Z,191
2018-11-22T09:05:01.580Z,185
2018-11-22T09:06:13.707Z,191
2018-11-22T09:07:25.995Z,191
2018-11-22T09:08:38.139Z,185
2018-11-22T09:09:50.414Z,174
2018-11-22T09:11:02.572Z,174
2018-11-22T09:12:14.845Z,174
2018-11-22T09:13:27.025Z,180
2018-11-22T09:14:39.156Z,180
2018-11-22T09:15:51.461Z,185
2018-11-22T09:17:03.595Z,191
2018-11-22T09:18:15.832Z,185
2018-11-22T09:19:28.058Z,180
2018-11-22T09:20:40.695Z,174
2018-11-22T09:21:52.472Z,168
2018-11-22T09:23:04.709Z,174
2018-11-22T09:24:16.827Z,185
2018-11-22T09:25:29.107Z,191
2018-11-22T09:26:41.314Z,191
2018-11-22T09:27:53.505Z,191
2018-11-22T09:29:05.712Z,196
2018-11-22T09:30:18.885Z,196
2018-11-22T09:31:30.125Z,196
2018-11-22T09:32:42.390Z,196
2018-11-22T09:33:54.511Z,196
2018-11-22T09:35:06.642Z,191
2018-11-22T09:36:18.867Z,185
2018-11-22T09:37:31.120Z,196
2018-11-22T09:38:43.375Z,191
2018-11-22T09:39:55.445Z,191
2018-11-22T09:41:07.648Z,196
2018-11-22T09:42:19.989Z,191
2018-11-22T09:43:32.160Z,191
2018-11-22T09:44:44.317Z,191
2018-11-22T09:45:56.449Z,191
2018-11-22T09:47:08.631Z,196
2018-11-22T09:48:21.556Z,202
2018-11-22T09:49:33.082Z,208
2018-11-22T09:51:59.483Z,208
2018-11-22T09:54:21.912Z,196
2018-11-22T09:55:34.043Z,196
2018-11-22T09:56:46.314Z,191
2018-11-22T09:57:58.522Z,191
2018-11-22T09:59:10.850Z,196
2018-11-22T10:00:22.933Z,196
2018-11-22T10:01:35.135Z,191
2018-11-22T10:02:47.344Z,191
2018-11-22T10:03:59.544Z,185
2018-11-22T10:05:14.464Z,191
2018-11-22T10:06:23.860Z,196
2018-11-22T10:07:36.098Z,208
2018-11-22T10:08:48.290Z,213
2018-11-22T10:10:00.489Z,219
2018-11-22T10:11:12.711Z,225
2018-11-22T10:12:24.996Z,225
2018-11-22T10:13:37.199Z,225
2018-11-22T10:14:49.343Z,230
2018-11-22T10:16:01.593Z,236
2018-11-22T10:17:13.768Z,236
2018-11-22T10:18:26.041Z,236
2018-11-22T10:19:38.152Z,241
2018-11-22T10:20:50.360Z,253
2018-11-22T10:22:02.634Z,253
2018-11-22T10:23:14.818Z,247
2018-11-22T10:24:27.036Z,241
2018-11-22T10:25:39.258Z,225
2018-11-22T10:26:51.416Z,219
2018-11-22T10:28:03.638Z,213
2018-11-22T10:29:15.826Z,219
2018-11-22T10:30:28.044Z,225
2018-11-22T10:31:40.175Z,230
2018-11-22T10:32:52.368Z,230
2018-11-22T10:34:04.615Z,236
2018-11-22T10:35:16.868Z,247
2018-11-22T10:36:29.092Z,253
2018-11-22T10:37:41.255Z,258
2018-11-22T10:38:53.494Z,253
2018-11-22T10:40:05.609Z,253
2018-11-22T10:41:17.799Z,253
2018-11-22T10:42:30.233Z,241
2018-11-22T10:43:42.349Z,230
2018-11-22T10:46:06.618Z,236
2018-11-22T10:47:18.829Z,241
2018-11-22T10:48:31.113Z,241
2018-11-22T10:49:43.320Z,247
2018-11-22T10:50:55.517Z,253
2018-11-22T10:52:07.713Z,253
2018-11-22T10:53:19.897Z,253
2018-11-22T10:54:32.043Z,253
2018-11-22T10:55:44.227Z,258
2018-11-22T10:56:56.533Z,253
2018-11-22T10:58:08.638Z,247
2018-11-22T10:59:20.935Z,230
2018-11-22T11:00:33.066Z,219
2018-11-22T11:01:45.346Z,208
2018-11-22T11:02:57.489Z,196
2018-11-22T11:04:10.769Z,196
2018-11-22T11:05:21.967Z,196
2018-11-22T11:06:34.101Z,202
2018-11-22T11:07:46.366Z,202
2018-11-22T11:08:58.580Z,191
2018-11-22T11:10:10.784Z,180
2018-11-22T11:11:22.915Z,180
2018-11-22T11:12:35.115Z,185
2018-11-22T11:13:47.398Z,180
2018-11-22T11:14:59.541Z,180
2018-11-22T11:16:11.814Z,180
2018-11-22T11:17:24.094Z,185
2018-11-22T11:18:36.243Z,185
2018-11-22T11:19:48.480Z,185
2018-11-22T11:21:00.592Z,196
2018-11-22T11:22:12.830Z,202
2018-11-22T11:23:25.088Z,196
2018-11-22T11:24:37.315Z,191
2018-11-22T11:25:49.522Z,191
2018-11-22T11:27:01.662Z,196
2018-11-22T11:28:13.878Z,202
2018-11-22T11:29:26.153Z,191
2018-11-22T11:30:38.306Z,185
2018-11-22T11:31:50.508Z,185
2018-11-22T11:33:03.509Z,185
2018-11-22T11:34:14.909Z,191
2018-11-22T11:35:27.161Z,196
2018-11-22T11:36:39.508Z,202
2018-11-22T11:37:51.497Z,202
2018-11-22T11:39:03.711Z,208
2018-11-22T11:40:15.980Z,196
2018-11-22T11:41:28.109Z,180
2018-11-22T11:42:40.342Z,174
2018-11-22T11:43:52.611Z,185
2018-11-22T11:45:04.740Z,185
2018-11-22T11:46:16.945Z,185
2018-11-22T11:47:29.150Z,185
2018-11-22T11:48:43.202Z,185
2018-11-22T11:49:53.641Z,174
2018-11-22T11:51:05.759Z,174
2018-11-22T11:52:17.977Z,180
2018-11-22T11:53:30.184Z,174
2018-11-22T11:54:42.463Z,174
2018-11-22T11:55:54.675Z,174
2018-11-22T11:57:06.912Z,174
2018-11-22T11:58:19.018Z,174
2018-11-22T11:59:31.335Z,168
2018-11-22T12:00:43.628Z,174
2018-11-22T12:01:55.752Z,180
2018-11-22T12:03:07.981Z,185
2018-11-22T12:04:20.316Z,191
2018-11-22T12:05:32.423Z,191
2018-11-22T12:06:44.551Z,196
2018-11-22T12:07:56.846Z,191
2018-11-22T12:09:08.976Z,185
2018-11-22T12:10:21.186Z,180
2018-11-22T12:11:33.653Z,180
2018-11-22T12:12:45.685Z,174
2018-11-22T12:13:57.839Z,174
2018-11-22T12:15:10.058Z,168
2018-11-22T12:16:22.343Z,168
2018-11-22T12:17:34.467Z,174
2018-11-22T12:18:46.749Z,174
2018-11-22T12:19:58.968Z,174
2018-11-22T12:21:11.178Z,174
2018-11-22T12:22:23.315Z,174
2018-11-22T12:23:35.504Z,168
2018-11-22T12:24:47.735Z,163
2018-11-22T12:25:59.995Z,163
2018-11-22T12:27:12.284Z,163
2018-11-22T12:28:24.331Z,163
2018-11-22T12:29:36.608Z,163
2018-11-22T12:30:48.816Z,163
2018-11-22T12:32:01.032Z,163
2018-11-22T12:33:13.163Z,163
2018-11-22T12:34:25.383Z,163
2018-11-22T12:35:37.678Z,163
2018-11-22T12:36:51.085Z,163
2018-11-22T12:38:02.093Z,157
2018-11-22T12:39:14.223Z,163
2018-11-22T12:40:26.437Z,168
2018-11-22T12:41:38.636Z,174
2018-11-22T12:42:50.866Z,174
2018-11-22T12:44:03.046Z,174
2018-11-22T12:45:15.331Z,174
2018-11-22T12:46:27.477Z,168
2018-11-22T12:47:39.683Z,168
2018-11-22T12:48:51.960Z,157
2018-11-22T12:50:04.178Z,151
2018-11-22T12:51:16.447Z,151
2018-11-22T12:52:28.579Z,157
2018-11-22T12:53:40.711Z,157
2018-11-22T12:54:53.153Z,146
2018-11-22T12:56:05.227Z,146
2018-11-22T12:57:17.351Z,140
2018-11-22T12:58:29.627Z,140
2018-11-22T12:59:41.876Z,146
2018-11-22T13:00:54.042Z,146
2018-11-22T13:02:06.344Z,146
2018-11-22T13:03:18.491Z,146
2018-11-22T13:04:30.671Z,146
2018-11-22T13:05:42.870Z,140
2018-11-22T13:06:55.129Z,118
2018-11-22T13:08:07.226Z,123
2018-11-22T13:09:19.428Z,140
2018-11-22T13:10:31.726Z,146
2018-11-22T13:11:43.865Z,140
2018-11-22T13:12:56.075Z,135
2018-11-22T13:14:08.379Z,129
2018-11-22T13:15:20.581Z,123
2018-11-22T13:16:32.715Z,123
2018-11-22T13:17:44.933Z,129
2018-11-22T13:18:57.312Z,129
2018-11-22T13:20:09.383Z,129
2018-11-22T13:21:21.736Z,129
2018-11-22T13:22:33.902Z,129
2018-11-22T13:23:46.068Z,129
2018-11-22T13:24:58.239Z,129
2018-11-22T13:26:10.466Z,129
2018-11-22T13:27:22.665Z,135
2018-11-22T13:28:34.881Z,135
2018-11-22T13:29:47.169Z,140
2018-11-22T13:30:59.205Z,140
2018-11-22T13:32:11.487Z,140
2018-11-22T13:33:23.628Z,140
2018-11-22T13:34:35.916Z,140
2018-11-22T13:35:48.108Z,140
2018-11-22T13:37:00.233Z,129
2018-11-22T13:38:12.527Z,123
2018-11-22T13:39:24.646Z,135
2018-11-22T13:40:36.858Z,140
2018-11-22T13:41:49.135Z,140
2018-11-22T13:43:01.278Z,140
2018-11-22T13:44:13.477Z,129
2018-11-22T13:45:25.767Z,123
2018-11-22T13:46:37.971Z,118
2018-11-22T13:47:51.692Z,106
2018-11-22T13:49:02.367Z,106
2018-11-22T13:50:14.521Z,106
2018-11-22T13:51:26.948Z,101
2018-11-22T13:52:38.913Z,101
2018-11-22T13:53:51.177Z,101
2018-11-22T13:55:03.307Z,101
2018-11-22T13:56:15.608Z,101
2018-11-22T13:57:27.815Z,101
2018-11-22T13:58:40.003Z,106
2018-11-22T13:59:52.151Z,106
2018-11-22T14:01:07.695Z,101
2018-11-22T14:02:16.563Z,101
2018-11-22T14:03:28.778Z,95
2018-11-22T14:04:41.058Z,90
2018-11-22T14:05:53.407Z,84
2018-11-22T14:07:05.514Z,78
2018-11-22T14:08:17.682Z,73
2018-11-22T14:09:30.012Z,67
2018-11-22T14:10:42.023Z,67
2018-11-22T14:11:54.232Z,67
2018-11-22T14:13:06.528Z,67
2018-11-22T14:14:18.660Z,73
2018-11-22T14:15:30.936Z,73
2018-11-22T14:16:43.115Z,67
2018-11-22T14:17:55.349Z,67
2018-11-22T14:19:07.471Z,67
2018-11-22T14:20:19.759Z,67
2018-11-22T14:21:31.880Z,67
2018-11-22T14:22:44.174Z,67
2018-11-22T14:23:56.306Z,67
2018-11-22T14:25:08.512Z,67
2018-11-22T14:26:21.408Z,67
2018-11-22T14:27:32.933Z,67
2018-11-22T14:28:45.213Z,67
2018-11-22T14:29:57.410Z,67
2018-11-22T14:31:09.525Z,73
2018-11-22T14:32:21.816Z,73
2018-11-22T14:33:36.153Z,73
2018-11-22T14:34:46.210Z,67
2018-11-22T14:35:58.440Z,67
2018-11-22T14:37:10.571Z,67
2018-11-22T14:38:22.818Z,67
2018-11-22T14:39:35.029Z,67
2018-11-22T14:40:47.154Z,67
2018-11-22T14:41:59.432Z,61
2018-11-22T14:43:11.650Z,61
2018-11-22T14:44:23.781Z,67
2018-11-22T14:45:36.163Z,61
2018-11-22T14:46:48.251Z,61
2018-11-22T14:48:00.394Z,56
2018-11-22T14:49:12.675Z,56
2018-11-22T14:50:24.917Z,50
2018-11-22T14:51:37.095Z,50
2018-11-22T14:52:49.225Z,50
2018-11-22T14:54:01.443Z,50
2018-11-22T14:55:13.728Z,45
2018-11-22T14:56:25.925Z,45
2018-11-22T14:57:38.133Z,45
2018-11-22T14:58:53.598Z,45
2018-11-22T15:00:02.607Z,39
2018-11-22T15:01:14.731Z,39
2018-11-22T15:02:27.049Z,39
2018-11-22T15:03:39.168Z,33
2018-11-22T15:04:51.335Z,33
2018-11-22T15:06:03.553Z,33
2018-11-22T15:07:15.669Z,33
2018-11-22T15:08:27.895Z,28
2018-11-22T15:09:40.203Z,28
2018-11-22T15:10:52.297Z,22
2018-11-22T15:12:04.598Z,22
2018-11-22T15:13:16.726Z,22
2018-11-22T15:14:29.035Z,22
2018-11-22T15:15:41.195Z,16
2018-11-22T15:16:53.333Z,16
2018-11-22T15:18:05.669Z,16
2018-11-22T15:19:17.867Z,16
2018-11-22T15:20:29.994Z,16
2018-11-22T15:21:42.360Z,11
2018-11-22T15:22:54.508Z,11
2018-11-22T15:24:06.668Z,11
2018-11-22T15:25:18.922Z,11
2018-11-22T15:26:31.193Z,11
2018-11-22T15:27:43.452Z,5
2018-11-22T15:28:55.542Z,5
2018-11-22T15:30:07.829Z,5
2018-11-22T15:31:20.036Z,5
2018-11-22T15:32:32.181Z,5
2018-11-22T15:33:44.450Z,5
2018-11-22T15:34:56.586Z,5
2018-11-22T15:36:08.809Z,0
2018-11-22T15:37:20.995Z,0
2018-11-22T15:38:33.222Z,0
2018-11-22T15:39:45.452Z,0
2018-11-22T15:40:57.682Z,0
2018-11-22T15:42:09.851Z,0
2018-11-22T15:43:22.100Z,0
2018-11-22T15:44:34.272Z,0
2018-11-22T15:45:46.503Z,0
2018-11-22T15:46:58.743Z,0
2018-11-22T15:48:10.890Z,0
2018-11-22T15:49:23.180Z,0
2018-11-22T15:50:35.401Z,0
2018-11-22T15:51:47.524Z,0
2018-11-22T15:52:59.808Z,0
2018-11-22T15:54:11.960Z,0
2018-11-22T15:55:24.265Z,0
2018-11-22T15:56:36.471Z,0
2018-11-22T15:57:48.675Z,0
2018-11-22T15:59:01.029Z,0
2018-11-22T16:00:13.006Z,0
2018-11-22T16:01:25.209Z,0
2018-11-22T16:02:37.429Z,0
2018-11-22T16:03:49.657Z,0
2018-11-22T16:05:01.951Z,0
2018-11-22T16:06:14.155Z,0
2018-11-22T16:07:26.401Z,0
2018-11-22T16:08:38.614Z,0
2018-11-22T16:09:50.824Z,0
2018-11-22T16:11:03.003Z,0
2018-11-22T16:12:15.133Z,0
2018-11-22T16:13:27.440Z,0
2018-11-22T16:14:39.669Z,0
2018-11-22T16:15:51.851Z,0
2018-11-22T16:17:04.125Z,0
2018-11-22T16:18:16.336Z,0
2018-11-22T16:19:28.451Z,0
2018-11-22T16:20:40.698Z,0
2018-11-22T16:21:52.885Z,0
2018-11-22T16:23:05.166Z,0
2018-11-22T16:24:17.368Z,0
2018-11-22T16:25:29.579Z,0
2018-11-22T16:26:41.768Z,0
2018-11-22T16:27:53.962Z,0
2018-11-22T16:29:06.142Z,0
2018-11-22T16:30:18.360Z,0
2018-11-22T16:31:30.621Z,0
2018-11-22T16:32:42.835Z,0
2018-11-22T16:33:55.049Z,0
2018-11-22T16:35:07.276Z,0
2018-11-22T16:36:19.518Z,0
2018-11-22T16:37:31.600Z,0
2018-11-22T16:38:43.884Z,0
2018-11-22T16:39:56.181Z,0
2018-11-22T16:41:08.322Z,0
2018-11-22T16:42:20.443Z,0
2018-11-22T16:43:32.734Z,0
2018-11-22T16:44:44.887Z,0
2018-11-22T16:47:09.310Z,0
2018-11-22T16:48:21.635Z,0
2018-11-22T16:49:33.874Z,0
2018-11-22T16:50:45.993Z,0
2018-11-22T16:51:58.175Z,0
2018-11-22T16:53:10.459Z,0
2018-11-22T16:54:22.577Z,0
2018-11-22T16:55:35.010Z,0
2018-11-22T16:56:47.078Z,0
2018-11-22T16:57:59.207Z,0
2018-11-22T16:59:11.418Z,0
2018-11-22T17:00:23.700Z,0
2018-11-22T17:01:35.979Z,0
2018-11-22T17:02:48.123Z,0
2018-11-22T17:04:00.362Z,0
2018-11-22T17:05:12.536Z,0
2018-11-22T17:06:24.826Z,0
2018-11-22T17:07:36.940Z,0
2018-11-22T17:08:49.116Z,0
2018-11-22T17:10:01.336Z,0
2018-11-22T17:11:13.660Z,0
2018-11-22T17:12:25.871Z,0
2018-11-22T17:13:38.061Z,0
2018-11-22T17:14:50.291Z,0
2018-11-22T17:16:02.414Z,0
2018-11-22T17:17:14.705Z,0
2018-11-22T17:18:26.851Z,0
2018-11-22T17:19:39.112Z,0
2018-11-22T17:20:51.258Z,0
2018-11-22T17:22:03.461Z,0